Portland, Oregon
Traffic Map
Current Weather Conditions
Portland, Oregon
Overcast Light Rain
Overcast

Feels Like: 3°
Wind Chill: Ceiling: 2100
Heat Index: Visibility: 6mi
Dew Point: Wind: 15mph
Humidity: 97% Direction: 110° (ESE)
Pressure: 29.71in Gusts: 0mph
Raw Report DataKPDX 201653Z 11013KT 6SM -RA BR FEW012 BKN021 OVC027 07/07 A2971 RMK AO2 SLP061 P0008 T00720067
Traffic Incident Summary
Active as of:
Severity:
Category:
InformationThere was an issue retrieving the traffic information for this location. Please try a different location or try again shortly.
Advertisements
Track Severe Weather on mobile